createdAt,value
2022-11-17T00:02:30.576Z,31.00
2022-11-17T00:10:38.790Z,31.33
2022-11-17T00:18:56.484Z,28.77
2022-11-17T00:27:26.062Z,26.23
2022-11-17T00:35:32.547Z,25.95
2022-11-17T00:43:43.303Z,25.60
2022-11-17T01:00:21.387Z,27.00
2022-11-17T01:08:34.993Z,25.27
2022-11-17T01:24:54.045Z,25.27
2022-11-17T01:33:02.042Z,32.72
2022-11-17T01:41:10.423Z,32.38
2022-11-17T01:49:24.308Z,33.10
2022-11-17T01:57:34.112Z,36.17
2022-11-17T02:05:51.377Z,34.88
2022-11-17T02:13:58.771Z,37.28
2022-11-17T02:22:36.545Z,36.20
2022-11-17T02:30:52.160Z,36.92
2022-11-17T02:39:03.666Z,31.73
2022-11-17T02:47:18.595Z,35.22
2022-11-17T02:55:24.074Z,34.60
2022-11-17T03:03:47.782Z,34.33
2022-11-17T03:20:11.766Z,33.53
2022-11-17T03:28:20.571Z,33.33
2022-11-17T03:36:33.982Z,32.67
2022-11-17T03:44:42.319Z,32.55
2022-11-17T03:52:51.774Z,34.97
2022-11-17T04:00:59.296Z,34.80
2022-11-17T04:09:07.395Z,33.30
2022-11-17T04:17:12.837Z,35.15
2022-11-17T04:25:40.848Z,35.60
2022-11-17T04:33:48.081Z,30.77
2022-11-17T04:42:03.447Z,29.55
2022-11-17T04:50:10.366Z,30.48
2022-11-17T04:58:18.345Z,32.20
2022-11-17T05:06:25.998Z,32.35
2022-11-17T05:14:34.402Z,32.78
2022-11-17T05:22:52.154Z,35.53
2022-11-17T05:31:00.191Z,31.10
2022-11-17T05:39:06.453Z,29.45
2022-11-17T05:47:14.604Z,31.83
2022-11-17T05:55:19.925Z,33.50
2022-11-17T06:03:32.249Z,33.25
2022-11-17T06:11:37.803Z,32.13
2022-11-17T06:19:49.409Z,31.25
2022-11-17T06:27:56.678Z,33.55
2022-11-17T06:36:07.299Z,38.42
2022-11-17T06:44:12.665Z,34.53
2022-11-17T06:52:20.646Z,35.95
2022-11-17T07:00:26.262Z,42.80
2022-11-17T07:08:35.202Z,38.25
2022-11-17T07:16:41.103Z,35.80
2022-11-17T07:24:49.626Z,38.20
2022-11-17T07:32:55.179Z,34.45
2022-11-17T07:41:03.970Z,35.03
2022-11-17T07:49:09.413Z,44.58
2022-11-17T07:57:17.750Z,38.45
2022-11-17T08:05:24.588Z,36.97
2022-11-17T08:13:32.569Z,34.42
2022-11-17T08:21:41.319Z,31.70
2022-11-17T08:29:49.404Z,23.20
2022-11-17T08:37:55.272Z,17.38
2022-11-17T08:46:03.463Z,13.18
2022-11-17T08:54:09.086Z,11.43
2022-11-17T09:02:18.205Z,15.80
2022-11-17T09:10:23.634Z,7.68
2022-11-17T09:18:31.689Z,4.70
2022-11-17T09:26:40.955Z,4.03
2022-11-17T09:34:49.162Z,4.95
2022-11-17T09:42:54.709Z,4.25
2022-11-17T09:51:05.348Z,4.47
2022-11-17T09:59:13.954Z,3.80
2022-11-17T10:07:22.393Z,3.67
2022-11-17T10:15:32.645Z,4.20
2022-11-17T10:23:47.416Z,3.65
2022-11-17T10:31:53.267Z,2.70
2022-11-17T10:40:24.792Z,3.28
2022-11-17T10:48:33.115Z,3.10
2022-11-17T10:56:44.794Z,3.92
2022-11-17T11:04:50.903Z,3.08
2022-11-17T11:13:07.318Z,3.72
2022-11-17T11:21:17.506Z,3.20
2022-11-17T11:29:35.747Z,3.50
2022-11-17T11:37:47.218Z,4.82
2022-11-17T11:46:05.764Z,2.97
2022-11-17T11:54:16.903Z,3.40
2022-11-17T12:02:32.117Z,3.13
2022-11-17T12:10:43.631Z,2.60
2022-11-17T12:18:51.654Z,4.25
2022-11-17T12:27:42.094Z,4.50
2022-11-17T12:36:10.189Z,4.05
2022-11-17T12:44:46.470Z,3.67
2022-11-17T12:53:08.234Z,4.15
2022-11-17T13:01:20.025Z,4.40
2022-11-17T13:09:30.714Z,4.50
2022-11-17T13:17:41.963Z,5.40
2022-11-17T13:25:50.232Z,3.97
2022-11-17T13:34:02.721Z,3.92
2022-11-17T13:42:11.069Z,5.15
2022-11-17T13:50:40.586Z,4.57
2022-11-17T13:58:52.007Z,5.95
2022-11-17T14:07:00.612Z,4.50
2022-11-17T14:15:17.050Z,5.43
2022-11-17T14:23:22.558Z,5.82
2022-11-17T14:31:30.604Z,7.40
2022-11-17T14:39:35.978Z,6.28
2022-11-17T14:47:44.230Z,5.80
2022-11-17T14:55:49.662Z,6.10
2022-11-17T15:03:58.734Z,9.20
2022-11-17T15:12:04.318Z,7.63
2022-11-17T15:20:13.779Z,7.18
2022-11-17T15:28:23.027Z,8.32
2022-11-17T15:36:32.033Z,8.07
2022-11-17T15:44:37.474Z,9.35
2022-11-17T16:01:16.034Z,8.98
2022-11-17T16:09:24.185Z,9.00
2022-11-17T16:17:29.634Z,10.13
2022-11-17T16:25:43.019Z,9.75
2022-11-17T16:33:52.533Z,10.88
2022-11-17T16:42:01.758Z,11.00
2022-11-17T16:50:08.168Z,11.77
2022-11-17T16:58:16.313Z,10.02
2022-11-17T17:06:21.763Z,11.50
2022-11-17T17:14:29.831Z,8.70
2022-11-17T17:22:35.331Z,9.63
2022-11-17T17:30:43.444Z,8.30
2022-11-17T17:38:55.041Z,9.32
2022-11-17T17:47:03.675Z,10.68
2022-11-17T17:55:10.771Z,10.23
2022-11-17T18:03:20.549Z,9.57
2022-11-17T18:11:26.746Z,12.18
2022-11-17T18:19:34.923Z,11.57
2022-11-17T18:27:40.279Z,10.55
2022-11-17T18:35:49.052Z,11.07
2022-11-17T18:43:55.273Z,11.63
2022-11-17T18:52:03.474Z,12.13
2022-11-17T19:00:10.784Z,11.75
2022-11-17T19:08:18.942Z,12.05
2022-11-17T19:16:26.097Z,11.90
2022-11-17T19:24:39.008Z,12.25
2022-11-17T19:32:45.558Z,12.53
2022-11-17T19:40:53.574Z,10.65
2022-11-17T19:48:59.753Z,11.15
2022-11-17T19:57:08.133Z,11.45
2022-11-17T20:05:13.577Z,12.30
2022-11-17T20:13:21.581Z,23.90
2022-11-17T20:21:27.625Z,18.90
2022-11-17T20:29:35.638Z,16.35
2022-11-17T20:37:41.926Z,14.60
2022-11-17T20:45:52.909Z,14.82
2022-11-17T20:53:58.425Z,14.77
2022-11-17T21:02:06.622Z,15.48
2022-11-17T21:10:12.666Z,16.60
2022-11-17T21:18:26.560Z,16.10
2022-11-17T21:26:32.116Z,16.98
2022-11-17T21:34:40.111Z,16.38
2022-11-17T21:42:45.447Z,15.68
2022-11-17T21:50:53.557Z,14.75
2022-11-17T21:58:59.053Z,17.25
2022-11-17T22:07:07.346Z,18.10
2022-11-17T22:15:13.116Z,15.85
2022-11-17T22:23:21.555Z,13.18
2022-11-17T22:31:27.351Z,14.13
2022-11-17T22:39:38.941Z,15.73
2022-11-17T22:47:44.428Z,12.32
2022-11-17T22:55:52.816Z,10.73
2022-11-17T23:03:58.321Z,9.85
2022-11-17T23:12:06.539Z,9.00
2022-11-17T23:20:13.879Z,8.63
2022-11-17T23:28:21.950Z,9.07
2022-11-17T23:36:27.784Z,8.38
2022-11-17T23:44:36.198Z,8.95
2022-11-17T23:52:41.569Z,9.02
